Time;durP1;ratioP1;P1;durP2;ratioP2;P2;SDS_P1;SDS_P2;PMS_P1;PMS_P2;Temp;Humidity;BMP_temperature;BMP_pressure;BME280_temperature;BME280_humidity;BME280_pressure;Samples;Min_cycle;Max_cycle;Signal;HPM_P1;HPM_P2
2023/07/26 00:01:55;;;;;;;0.50;0.40;;;13.10;99.90;;;;;;5024319;28;20496;-79
2023/07/26 00:04:21;;;;;;;0.50;0.40;;;13.10;99.90;;;;;;5025016;28;20468;-78
2023/07/26 00:06:48;;;;;;;0.50;0.40;;;13.10;99.90;;;;;;5027171;28;20891;-78
2023/07/26 00:09:15;;;;;;;0.50;0.40;;;13.10;99.90;;;;;;5026367;28;20810;-78
2023/07/26 00:11:43;;;;;;;0.50;0.40;;;13.10;99.90;;;;;;5023893;28;20456;-79
2023/07/26 00:14:10;;;;;;;0.50;0.40;;;13.10;99.90;;;;;;5022922;28;20451;-78
2023/07/26 00:16:37;;;;;;;0.50;0.40;;;13.10;99.90;;;;;;5026417;28;20443;-79
2023/07/26 00:19:04;;;;;;;0.50;0.40;;;13.10;99.90;;;;;;5026313;28;20472;-78
2023/07/26 00:21:30;;;;;;;0.50;0.40;;;13.10;99.90;;;;;;5023700;28;20454;-78
2023/07/26 00:23:58;;;;;;;0.50;0.40;;;13.10;99.90;;;;;;5023383;28;20453;-78
2023/07/26 00:26:25;;;;;;;0.50;0.40;;;13.20;99.90;;;;;;5024417;28;20488;-78
2023/07/26 00:28:53;;;;;;;0.50;0.40;;;13.20;99.90;;;;;;5026448;28;20977;-78
2023/07/26 00:31:20;;;;;;;0.50;0.40;;;13.30;99.90;;;;;;5025076;28;20447;-77
2023/07/26 00:33:47;;;;;;;0.50;0.40;;;13.30;99.90;;;;;;5022715;28;20445;-79
2023/07/26 00:36:13;;;;;;;0.50;0.40;;;13.40;99.90;;;;;;5023449;28;20437;-78
2023/07/26 00:38:40;;;;;;;0.50;0.40;;;13.40;99.90;;;;;;5014823;28;20487;-78
2023/07/26 00:41:08;;;;;;;0.50;0.40;;;13.40;99.90;;;;;;5023108;28;20455;-78
2023/07/26 00:43:35;;;;;;;0.50;0.40;;;13.50;99.90;;;;;;5025188;28;20441;-78
2023/07/26 00:46:04;;;;;;;0.50;0.40;;;13.50;99.90;;;;;;5026201;28;20476;-78
2023/07/26 00:48:31;;;;;;;0.50;0.40;;;13.60;99.90;;;;;;5023687;28;20483;-79
2023/07/26 00:50:59;;;;;;;0.50;0.40;;;13.60;99.90;;;;;;5022403;28;20447;-78
2023/07/26 00:53:28;;;;;;;0.50;0.40;;;13.70;99.90;;;;;;5023516;28;20445;-78
2023/07/26 00:55:56;;;;;;;0.50;0.40;;;13.70;99.90;;;;;;5026005;28;20567;-78
2023/07/26 00:58:23;;;;;;;0.50;0.40;;;13.70;99.90;;;;;;5024716;28;20443;-78
2023/07/26 01:00:51;;;;;;;0.83;0.83;;;13.70;99.90;;;;;;5022412;28;20453;-79
2023/07/26 01:03:19;;;;;;;0.50;0.40;;;13.70;99.90;;;;;;5021614;28;20450;-77
2023/07/26 01:05:55;;;;;;;0.50;0.40;;;13.70;99.90;;;;;;5025144;28;20534;-78
2023/07/26 01:08:30;;;;;;;0.50;0.40;;;13.70;99.90;;;;;;5024956;28;20447;-78
2023/07/26 01:10:59;;;;;;;0.50;0.40;;;13.70;99.90;;;;;;5022839;28;20987;-77
2023/07/26 01:13:35;;;;;;;0.50;0.40;;;13.70;99.90;;;;;;5022239;28;20449;-78
2023/07/26 01:16:03;;;;;;;0.50;0.40;;;13.70;99.90;;;;;;5022299;28;20441;-78
2023/07/26 01:18:31;;;;;;;0.50;0.40;;;13.70;99.90;;;;;;5023898;28;20471;-78
2023/07/26 01:20:59;;;;;;;0.50;0.40;;;13.60;99.90;;;;;;5026020;28;20439;-79
2023/07/26 01:23:27;;;;;;;0.50;0.40;;;13.60;99.90;;;;;;5023601;28;20459;-78
2023/07/26 01:25:54;;;;;;;0.50;0.40;;;13.60;99.90;;;;;;5022139;28;20456;-79
2023/07/26 01:28:21;;;;;;;0.50;0.40;;;13.50;99.90;;;;;;5022156;28;20833;-78
2023/07/26 01:30:49;;;;;;;0.50;0.40;;;13.50;99.90;;;;;;5025811;28;20535;-79
2023/07/26 01:33:18;;;;;;;0.50;0.40;;;13.50;99.90;;;;;;5028268;28;20453;-79
2023/07/26 01:35:46;;;;;;;0.50;0.40;;;13.50;99.90;;;;;;5021644;28;20448;-79
2023/07/26 01:38:13;;;;;;;0.50;0.40;;;13.50;99.90;;;;;;5033099;28;20444;-79
2023/07/26 01:40:42;;;;;;;0.50;0.40;;;13.50;99.90;;;;;;5026705;28;20451;-79
2023/07/26 01:43:09;;;;;;;0.50;0.40;;;13.50;99.90;;;;;;5025766;28;20448;-79
2023/07/26 01:45:35;;;;;;;0.50;0.40;;;13.50;99.90;;;;;;5028244;28;20849;-77
2023/07/26 01:48:02;;;;;;;0.50;0.40;;;13.50;99.90;;;;;;5029369;28;20476;-79
2023/07/26 01:50:29;;;;;;;0.50;0.40;;;13.50;99.90;;;;;;5028204;28;20499;-79
2023/07/26 01:52:56;;;;;;;0.50;0.40;;;13.50;99.90;;;;;;5025951;28;20451;-79
2023/07/26 01:55:22;;;;;;;0.50;0.40;;;13.50;99.90;;;;;;5026509;28;20445;-77
2023/07/26 01:57:51;;;;;;;0.50;0.40;;;13.50;99.90;;;;;;5030501;28;20436;-79
2023/07/26 02:00:17;;;;;;;0.50;0.40;;;13.60;99.90;;;;;;5029214;28;20546;-79
2023/07/26 02:02:44;;;;;;;0.50;0.40;;;13.60;99.90;;;;;;5025879;28;20564;-79
2023/07/26 02:05:11;;;;;;;0.50;0.40;;;13.60;99.90;;;;;;5025938;28;20837;-79
2023/07/26 02:07:38;;;;;;;0.50;0.40;;;13.70;99.90;;;;;;5027842;28;20483;-79
2023/07/26 02:10:06;;;;;;;0.50;0.40;;;13.60;99.90;;;;;;5029128;28;20460;-79
2023/07/26 02:12:32;;;;;;;0.50;0.40;;;13.60;99.90;;;;;;5027896;28;20449;-79
2023/07/26 02:15:00;;;;;;;0.50;0.40;;;13.60;99.90;;;;;;5025322;28;21033;-80
2023/07/26 02:17:27;;;;;;;0.50;0.40;;;13.60;99.90;;;;;;5026718;28;20807;-79
2023/07/26 02:19:54;;;;;;;0.50;0.40;;;13.60;99.90;;;;;;5028825;28;20470;-78
2023/07/26 02:22:21;;;;;;;0.50;0.40;;;13.60;99.90;;;;;;5028812;28;20443;-79
2023/07/26 02:24:48;;;;;;;0.50;0.40;;;13.60;99.90;;;;;;5025198;28;20437;-79
2023/07/26 02:27:15;;;;;;;0.50;0.40;;;13.60;99.90;;;;;;5025264;28;20487;-78
2023/07/26 02:29:42;;;;;;;0.50;0.40;;;13.60;99.90;;;;;;5027503;28;20473;-79
2023/07/26 02:32:10;;;;;;;0.60;0.60;;;13.60;99.90;;;;;;5028904;28;20448;-79
2023/07/26 02:34:37;;;;;;;0.50;0.40;;;13.60;99.90;;;;;;5026915;28;20440;-79
2023/07/26 02:37:04;;;;;;;0.50;0.40;;;13.60;99.90;;;;;;5024923;28;20483;-79
2023/07/26 02:39:31;;;;;;;0.50;0.40;;;13.70;99.90;;;;;;5027257;28;20464;-79
2023/07/26 02:41:58;;;;;;;0.50;0.40;;;13.70;99.90;;;;;;5028474;28;20458;-77
2023/07/26 02:44:24;;;;;;;0.50;0.40;;;13.70;99.90;;;;;;5028980;28;20448;-79
2023/07/26 02:46:51;;;;;;;0.50;0.40;;;13.70;99.90;;;;;;5017807;28;20476;-79
2023/07/26 02:49:19;;;;;;;0.50;0.40;;;13.70;99.90;;;;;;5025786;28;20466;-79
2023/07/26 02:51:46;;;;;;;0.50;0.40;;;13.70;99.90;;;;;;5028418;28;20444;-79
2023/07/26 02:54:13;;;;;;;0.50;0.40;;;13.70;99.90;;;;;;5028694;28;20448;-79
2023/07/26 02:56:39;;;;;;;0.50;0.40;;;13.80;99.90;;;;;;5027472;28;20445;-78
2023/07/26 02:59:06;;;;;;;0.50;0.40;;;13.80;99.90;;;;;;5025711;28;20457;-80
2023/07/26 03:01:33;;;;;;;0.50;0.40;;;13.80;99.90;;;;;;5026398;28;20449;-79
2023/07/26 03:04:00;;;;;;;0.50;0.40;;;13.70;99.90;;;;;;5029574;28;20459;-80
2023/07/26 03:06:28;;;;;;;0.50;0.40;;;13.70;99.90;;;;;;5028449;28;20833;-78
2023/07/26 03:08:54;;;;;;;0.50;0.40;;;13.70;99.90;;;;;;5016671;28;20460;-78
2023/07/26 03:11:21;;;;;;;0.50;0.40;;;13.60;99.90;;;;;;5025146;28;20460;-79
2023/07/26 03:13:48;;;;;;;0.50;0.40;;;13.50;99.90;;;;;;5027215;28;20494;-81
2023/07/26 03:16:17;;;;;;;0.50;0.40;;;13.30;99.90;;;;;;5028478;28;20462;-78
2023/07/26 03:18:44;;;;;;;0.50;0.40;;;13.10;99.90;;;;;;5025895;28;20497;-79
2023/07/26 03:21:11;;;;;;;0.50;0.40;;;13.00;99.90;;;;;;5024494;28;20448;-78
2023/07/26 03:23:39;;;;;;;0.50;0.40;;;12.90;99.90;;;;;;5024567;28;20452;-78
2023/07/26 03:26:06;;;;;;;0.50;0.40;;;12.90;99.90;;;;;;5027880;28;20454;-78
2023/07/26 03:28:33;;;;;;;0.50;0.40;;;12.90;99.90;;;;;;5026459;28;20475;-78
2023/07/26 03:31:00;;;;;;;0.50;0.40;;;12.80;99.90;;;;;;5024471;28;20441;-79
2023/07/26 03:33:27;;;;;;;0.50;0.40;;;12.70;99.90;;;;;;5023834;28;20926;-78
2023/07/26 03:35:54;;;;;;;0.50;0.40;;;12.70;99.90;;;;;;5028570;28;20448;-80
2023/07/26 03:38:20;;;;;;;0.50;0.40;;;12.70;99.90;;;;;;5030593;28;20933;-78
2023/07/26 03:40:49;;;;;;;0.50;0.40;;;12.80;99.90;;;;;;5024445;28;20445;-78
2023/07/26 03:43:15;;;;;;;0.50;0.40;;;12.90;99.90;;;;;;5023323;28;20922;-80
2023/07/26 03:45:42;;;;;;;0.50;0.40;;;12.90;99.90;;;;;;5034436;28;20603;-80
2023/07/26 03:48:09;;;;;;;0.50;0.40;;;13.00;99.90;;;;;;5029074;28;20477;-78
2023/07/26 03:50:36;;;;;;;0.50;0.40;;;13.00;99.90;;;;;;5026591;28;20435;-78
2023/07/26 03:53:03;;;;;;;1.53;1.23;;;13.10;99.90;;;;;;5023408;28;20522;-79
2023/07/26 03:55:29;;;;;;;0.50;0.40;;;13.10;99.90;;;;;;5024506;28;20441;-81
2023/07/26 03:57:58;;;;;;;0.50;0.40;;;13.10;99.90;;;;;;5028212;28;20440;-79
2023/07/26 04:00:25;;;;;;;0.50;0.40;;;13.20;99.90;;;;;;5027826;28;20965;-78
2023/07/26 04:02:52;;;;;;;0.50;0.40;;;13.10;99.90;;;;;;5023772;28;20451;-79
2023/07/26 04:05:19;;;;;;;0.50;0.40;;;13.10;99.90;;;;;;5023954;28;20448;-78
2023/07/26 04:07:46;;;;;;;0.50;0.40;;;13.10;99.90;;;;;;5025639;28;20476;-78
2023/07/26 04:10:12;;;;;;;0.50;0.40;;;13.10;99.90;;;;;;5029777;28;20472;-78
2023/07/26 04:12:39;;;;;;;0.50;0.40;;;13.10;99.90;;;;;;5025124;28;20445;-76
2023/07/26 04:15:08;;;;;;;0.50;0.40;;;13.10;99.90;;;;;;5025952;28;20448;-79
2023/07/26 04:17:35;;;;;;;0.50;0.40;;;13.10;99.90;;;;;;5025064;28;20955;-77
2023/07/26 04:20:02;;;;;;;0.50;0.40;;;13.10;99.90;;;;;;5021974;28;20465;-79
2023/07/26 04:22:29;;;;;;;0.50;0.40;;;13.00;99.90;;;;;;5022014;28;20941;-79
2023/07/26 04:24:56;;;;;;;0.50;0.40;;;13.10;99.90;;;;;;5025057;28;20444;-79
2023/07/26 04:27:22;;;;;;;0.50;0.40;;;13.10;99.90;;;;;;5026496;28;20486;-79
2023/07/26 04:29:49;;;;;;;0.50;0.40;;;13.10;99.90;;;;;;5022580;28;20482;-79
2023/07/26 04:32:17;;;;;;;0.60;0.60;;;13.10;99.90;;;;;;5020449;28;20521;-79
2023/07/26 04:34:44;;;;;;;0.60;0.60;;;13.10;99.90;;;;;;5020931;28;20445;-79
2023/07/26 04:37:11;;;;;;;0.50;0.40;;;13.10;99.90;;;;;;5023756;28;20448;-81
2023/07/26 04:39:37;;;;;;;0.50;0.40;;;13.10;99.90;;;;;;5023734;28;20471;-78
2023/07/26 04:42:05;;;;;;;0.50;0.50;;;13.10;99.90;;;;;;5020913;28;20953;-79
2023/07/26 04:44:31;;;;;;;0.50;0.40;;;13.20;99.90;;;;;;5020463;28;20825;-78
2023/07/26 04:46:59;;;;;;;0.50;0.40;;;13.20;99.90;;;;;;5023334;28;20456;-79
2023/07/26 04:49:27;;;;;;;0.50;0.40;;;13.20;99.90;;;;;;5024261;28;20840;-77
2023/07/26 04:51:54;;;;;;;0.50;0.40;;;13.20;99.90;;;;;;5021760;28;20941;-79
2023/07/26 04:54:20;;;;;;;0.50;0.40;;;13.20;99.90;;;;;;5017781;28;20447;-78
2023/07/26 04:56:47;;;;;;;0.50;0.40;;;13.20;99.90;;;;;;5022360;28;20452;-78
2023/07/26 04:59:14;;;;;;;1.00;0.93;;;13.20;99.90;;;;;;5020746;28;21011;-78
2023/07/26 05:01:41;;;;;;;0.50;0.40;;;13.20;99.90;;;;;;5021097;28;20492;-78
2023/07/26 05:04:08;;;;;;;0.50;0.40;;;13.30;99.90;;;;;;5024349;28;20440;-77
2023/07/26 05:06:37;;;;;;;0.50;0.40;;;13.40;99.90;;;;;;5023357;28;20963;-78
2023/07/26 05:09:05;;;;;;;0.50;0.40;;;13.40;99.90;;;;;;5020268;28;20993;-78
2023/07/26 05:11:31;;;;;;;0.50;0.40;;;13.40;99.90;;;;;;5020685;28;20445;-78
2023/07/26 05:13:58;;;;;;;0.50;0.40;;;13.40;99.90;;;;;;5022502;28;20446;-78
2023/07/26 05:16:25;;;;;;;1.07;0.97;;;13.40;99.90;;;;;;5026500;28;20441;-79
2023/07/26 05:18:53;;;;;;;0.50;0.40;;;13.50;99.90;;;;;;5021791;28;20461;-78
2023/07/26 05:21:19;;;;;;;1.37;1.13;;;13.50;99.90;;;;;;5022959;28;20995;-77
2023/07/26 05:23:48;;;;;;;0.50;0.40;;;13.50;99.90;;;;;;5021036;28;20452;-78
2023/07/26 05:26:14;;;;;;;0.70;0.47;;;13.50;99.90;;;;;;5019482;28;20441;-78
2023/07/26 05:28:41;;;;;;;1.33;1.23;;;13.40;99.90;;;;;;5019126;28;21175;-75
2023/07/26 05:31:08;;;;;;;0.50;0.40;;;13.40;99.90;;;;;;5022642;28;20922;-78
2023/07/26 05:33:35;;;;;;;0.50;0.40;;;13.40;99.90;;;;;;5026034;28;20448;-80
2023/07/26 05:36:01;;;;;;;0.50;0.40;;;13.30;99.90;;;;;;5025002;28;20809;-79
2023/07/26 05:38:29;;;;;;;0.50;0.40;;;13.40;99.90;;;;;;5025012;28;20434;-79
2023/07/26 05:41:03;;;;;;;0.50;0.40;;;13.30;99.90;;;;;;5026258;28;20449;-79
2023/07/26 05:43:30;;;;;;;4.83;1.73;;;13.30;99.90;;;;;;5027310;28;20436;-78
2023/07/26 05:45:57;;;;;;;0.50;0.40;;;13.40;99.90;;;;;;5024835;28;20447;-79
2023/07/26 05:48:24;;;;;;;0.50;0.40;;;13.40;99.90;;;;;;5024130;28;20476;-79
2023/07/26 05:50:51;;;;;;;0.50;0.40;;;13.40;99.90;;;;;;5025258;28;20455;-79
2023/07/26 05:53:17;;;;;;;1.03;1.03;;;13.50;99.90;;;;;;5027096;28;20444;-79
2023/07/26 05:55:45;;;;;;;0.50;0.40;;;13.60;99.90;;;;;;5027644;28;20439;-77
2023/07/26 05:58:13;;;;;;;0.50;0.40;;;13.70;99.90;;;;;;5024433;28;20449;-79
2023/07/26 06:00:40;;;;;;;0.50;0.40;;;13.70;99.90;;;;;;5024723;28;20448;-79
2023/07/26 06:03:07;;;;;;;0.50;0.40;;;13.80;99.90;;;;;;5026837;28;20448;-79
2023/07/26 06:05:34;;;;;;;0.50;0.40;;;13.80;99.90;;;;;;5029629;28;20452;-79
2023/07/26 06:08:01;;;;;;;0.50;0.40;;;13.80;99.90;;;;;;5024110;28;20499;-79
2023/07/26 06:10:28;;;;;;;0.50;0.40;;;13.90;99.90;;;;;;5023780;28;20472;-79
2023/07/26 06:12:54;;;;;;;0.60;0.50;;;13.90;99.90;;;;;;5024394;28;20929;-78
2023/07/26 06:15:23;;;;;;;0.50;0.40;;;14.00;99.90;;;;;;5027823;28;21193;-80
2023/07/26 06:17:50;;;;;;;0.50;0.40;;;14.00;99.90;;;;;;5027159;28;20524;-79
2023/07/26 06:20:17;;;;;;;0.50;0.40;;;14.10;99.90;;;;;;4991556;28;1048698;-79
2023/07/26 06:22:43;;;;;;;0.50;0.40;;;14.20;99.90;;;;;;5028035;28;20555;-78
2023/07/26 06:25:10;;;;;;;0.50;0.40;;;14.50;99.90;;;;;;5031282;28;20441;-79
2023/07/26 06:27:37;;;;;;;0.50;0.40;;;15.10;99.90;;;;;;5032370;28;20451;-78
2023/07/26 06:30:04;;;;;;;0.50;0.40;;;15.40;99.90;;;;;;5029619;28;20961;-79
2023/07/26 06:32:32;;;;;;;0.50;0.40;;;15.90;99.90;;;;;;5028852;28;20445;-79
2023/07/26 06:34:59;;;;;;;0.50;0.40;;;16.20;99.90;;;;;;5030121;28;20456;-80
2023/07/26 06:37:26;;;;;;;0.50;0.40;;;16.60;99.90;;;;;;5032882;28;20441;-80
2023/07/26 06:39:53;;;;;;;0.50;0.40;;;17.20;99.90;;;;;;5031022;28;20490;-81
2023/07/26 06:42:20;;;;;;;0.50;0.40;;;17.50;99.90;;;;;;5028986;28;20450;-80
2023/07/26 06:44:46;;;;;;;0.60;0.60;;;17.70;99.90;;;;;;5037104;28;20445;-79
2023/07/26 06:47:13;;;;;;;0.83;0.83;;;18.00;99.90;;;;;;5028877;28;20452;-80
2023/07/26 06:49:41;;;;;;;0.50;0.37;;;18.10;99.90;;;;;;5030297;28;20493;-80
2023/07/26 06:52:08;;;;;;;0.50;0.40;;;18.40;99.90;;;;;;5032377;28;20450;-80
2023/07/26 06:54:36;;;;;;;2.70;0.87;;;18.50;99.90;;;;;;5032805;28;20448;-79
2023/07/26 06:57:03;;;;;;;0.63;0.40;;;18.50;99.90;;;;;;5029890;28;20449;-80
2023/07/26 06:59:30;;;;;;;1.67;1.57;;;18.50;99.90;;;;;;5028282;28;20465;-80
2023/07/26 07:01:57;;;;;;;0.50;0.30;;;18.40;99.90;;;;;;5028961;28;20446;-79
2023/07/26 07:04:23;;;;;;;0.50;0.40;;;18.40;99.90;;;;;;5031811;28;20437;-80
2023/07/26 07:06:51;;;;;;;0.73;0.73;;;18.50;99.90;;;;;;5031924;28;20445;-79
2023/07/26 07:09:18;;;;;;;0.50;0.40;;;18.60;99.90;;;;;;5031647;28;20486;-80
2023/07/26 07:11:45;;;;;;;0.60;0.60;;;18.70;99.90;;;;;;5033784;28;20452;-80
2023/07/26 07:14:12;;;;;;;0.60;0.50;;;19.10;99.90;;;;;;5033293;28;20457;-80
2023/07/26 07:16:39;;;;;;;0.50;0.30;;;19.60;99.90;;;;;;5033366;28;20546;-80
2023/07/26 07:19:05;;;;;;;1.93;1.87;;;19.70;99.90;;;;;;5029820;28;20477;-79
2023/07/26 07:21:32;;;;;;;0.67;0.40;;;19.90;99.90;;;;;;5047831;22;20503;-82
2023/07/26 07:24:00;;;;;;;0.50;0.40;;;19.90;99.90;;;;;;5052865;28;20441;-82
2023/07/26 07:26:27;;;;;;;0.70;0.70;;;19.80;99.90;;;;;;5054255;28;20451;-81
2023/07/26 07:28:54;;;;;;;0.50;0.40;;;19.60;99.90;;;;;;5054962;28;21013;-81
2023/07/26 07:31:20;;;;;;;0.50;0.40;;;19.50;99.90;;;;;;5057938;28;20523;-81
2023/07/26 07:33:47;;;;;;;0.50;0.40;;;19.50;99.90;;;;;;5055634;28;20508;-82
2023/07/26 07:36:17;;;;;;;0.50;0.40;;;19.60;99.90;;;;;;5057005;28;20932;-82
2023/07/26 07:38:45;;;;;;;0.50;0.40;;;19.80;99.90;;;;;;5058108;28;20451;-81
2023/07/26 07:41:13;;;;;;;0.80;0.80;;;19.60;99.90;;;;;;5050129;28;20465;-81
2023/07/26 07:43:40;;;;;;;0.50;0.40;;;19.60;99.90;;;;;;5057996;28;20450;-83
2023/07/26 07:46:07;;;;;;;0.50;0.50;;;20.00;99.90;;;;;;5059481;28;20441;-82
2023/07/26 07:48:35;;;;;;;0.50;0.40;;;20.80;99.90;;;;;;5059083;28;20536;-82
2023/07/26 07:51:01;;;;;;;0.50;0.40;;;21.00;99.90;;;;;;5058232;28;20832;-80
2023/07/26 07:53:28;;;;;;;0.50;0.50;;;21.10;99.90;;;;;;5060321;28;20526;-82
2023/07/26 07:55:55;;;;;;;0.50;0.40;;;21.10;99.90;;;;;;5058619;28;20442;-81
2023/07/26 07:58:25;;;;;;;0.53;0.40;;;21.20;99.90;;;;;;5054742;28;20437;-81
2023/07/26 08:00:57;;;;;;;0.50;0.40;;;21.40;99.90;;;;;;5054865;28;20467;-80
2023/07/26 08:03:24;;;;;;;0.80;0.73;;;22.10;99.90;;;;;;5034772;28;20535;-81
2023/07/26 08:05:51;;;;;;;1.27;0.87;;;22.30;99.90;;;;;;5049719;28;20451;-81
2023/07/26 08:08:18;;;;;;;1.30;1.30;;;22.80;99.90;;;;;;5054982;28;20486;-81
2023/07/26 08:10:45;;;;;;;0.50;0.40;;;23.30;99.90;;;;;;5054406;28;20453;-79
2023/07/26 08:13:11;;;;;;;0.50;0.40;;;23.20;99.90;;;;;;5054465;28;20444;-82
2023/07/26 08:15:40;;;;;;;2.20;2.10;;;23.50;99.90;;;;;;5052395;28;20440;-82
2023/07/26 08:18:07;;;;;;;0.50;0.37;;;23.70;99.90;;;;;;5067251;28;20967;-79
2023/07/26 08:20:34;;;;;;;0.50;0.40;;;23.30;99.90;;;;;;5052325;28;20528;-80
2023/07/26 08:23:01;;;;;;;1.53;0.73;;;22.80;99.90;;;;;;5051981;28;20454;-80
2023/07/26 08:25:28;;;;;;;1.47;0.63;;;22.90;99.90;;;;;;5057296;28;20437;-80
2023/07/26 08:27:55;;;;;;;0.50;0.40;;;23.60;99.90;;;;;;5050319;28;20435;-79
2023/07/26 08:30:22;;;;;;;0.50;0.40;;;24.20;99.90;;;;;;5058380;28;20487;-79
2023/07/26 08:32:51;;;;;;;0.50;0.40;;;24.30;99.90;;;;;;5049465;28;20445;-82
2023/07/26 08:35:18;;;;;;;0.60;0.60;;;23.90;96.10;;;;;;5042718;28;20544;-80
2023/07/26 08:37:45;;;;;;;0.50;0.40;;;23.60;96.90;;;;;;5045713;28;20437;-80
2023/07/26 08:40:13;;;;;;;0.60;0.50;;;23.00;99.90;;;;;;5049723;28;20450;-79
2023/07/26 08:42:41;;;;;;;0.70;0.50;;;22.20;99.90;;;;;;5053135;28;20445;-80
2023/07/26 08:45:09;;;;;;;0.50;0.40;;;21.50;99.90;;;;;;5043495;28;20449;-80
2023/07/26 08:47:36;;;;;;;0.50;0.30;;;21.00;99.90;;;;;;5052644;28;20459;-80
2023/07/26 08:50:07;;;;;;;0.50;0.37;;;20.80;99.90;;;;;;5051691;28;20851;-81
2023/07/26 08:52:34;;;;;;;0.50;0.30;;;20.70;99.90;;;;;;5050159;28;20465;-81
2023/07/26 08:55:02;;;;;;;0.50;0.30;;;20.50;99.90;;;;;;5048491;28;20441;-79
2023/07/26 08:57:29;;;;;;;0.50;0.40;;;20.40;99.90;;;;;;5048239;28;20450;-80
2023/07/26 08:59:56;;;;;;;0.50;0.40;;;20.10;99.90;;;;;;5056039;28;20443;-80
2023/07/26 09:02:24;;;;;;;0.50;0.40;;;19.90;99.90;;;;;;5055663;28;20980;-79
2023/07/26 09:04:50;;;;;;;0.50;0.40;;;19.10;99.90;;;;;;5041541;28;20444;-79
2023/07/26 09:07:19;;;;;;;0.50;0.40;;;18.60;99.90;;;;;;5051983;28;20521;-79
2023/07/26 09:09:46;;;;;;;0.50;0.30;;;18.10;99.90;;;;;;5055388;28;20485;-79
2023/07/26 09:12:24;;;;;;;0.50;0.40;;;17.90;99.90;;;;;;5050756;28;20479;-79
2023/07/26 09:14:53;;;;;;;0.60;0.43;;;17.70;99.90;;;;;;5054735;28;20492;-80
2023/07/26 09:17:20;;;;;;;0.50;0.43;;;17.50;99.90;;;;;;5057469;28;20448;-80
2023/07/26 09:19:50;;;;;;;0.50;0.40;;;17.10;99.90;;;;;;5052330;28;20444;-80
2023/07/26 09:22:17;;;;;;;0.50;0.40;;;16.50;99.90;;;;;;5054430;28;20460;-79
2023/07/26 09:24:50;;;;;;;3.27;3.03;;;15.70;99.90;;;;;;5054904;28;20465;-78
2023/07/26 09:27:19;;;;;;;0.60;0.60;;;14.70;99.90;;;;;;5051770;28;20506;-79
2023/07/26 09:29:58;;;;;;;0.50;0.40;;;14.10;99.90;;;;;;5050614;28;20472;-78
2023/07/26 09:32:29;;;;;;;0.50;0.40;;;13.70;99.90;;;;;;5052710;28;20463;-79
2023/07/26 09:34:59;;;;;;;0.50;0.40;;;13.40;99.90;;;;;;5054445;28;20458;-80
2023/07/26 09:37:26;;;;;;;0.50;0.40;;;13.30;99.90;;;;;;5051508;28;20447;-79
2023/07/26 09:39:57;;;;;;;0.50;0.50;;;13.20;99.90;;;;;;5051195;28;20906;-80
2023/07/26 09:42:23;;;;;;;0.50;0.40;;;13.20;99.90;;;;;;5050447;28;20468;-79
2023/07/26 09:44:58;;;;;;;2.33;2.20;;;13.30;99.90;;;;;;5051104;28;20448;-80
2023/07/26 09:47:37;;;;;;;0.50;0.40;;;13.30;99.90;;;;;;5054777;28;20477;-79
2023/07/26 09:50:04;;;;;;;0.50;0.40;;;13.40;99.90;;;;;;5064915;28;20543;-81
2023/07/26 09:52:32;;;;;;;0.50;0.40;;;13.50;99.90;;;;;;5053302;28;20472;-79
2023/07/26 09:55:02;;;;;;;0.50;0.40;;;13.80;99.90;;;;;;5055613;28;20512;-81
2023/07/26 09:57:31;;;;;;;0.50;0.40;;;14.50;99.90;;;;;;5058554;28;20444;-80
2023/07/26 10:00:00;;;;;;;0.50;0.40;;;15.50;99.90;;;;;;5057619;28;20486;-80
2023/07/26 10:02:28;;;;;;;0.50;0.40;;;16.90;99.90;;;;;;5052415;28;20480;-79
2023/07/26 10:04:58;;;;;;;0.50;0.30;;;18.40;99.90;;;;;;5053161;28;20441;-81
2023/07/26 10:07:26;;;;;;;0.50;0.37;;;19.20;99.90;;;;;;5056089;28;20463;-78
2023/07/26 10:09:55;;;;;;;0.50;0.40;;;19.70;99.90;;;;;;5057373;28;20487;-79
2023/07/26 10:12:26;;;;;;;0.50;0.37;;;20.00;99.90;;;;;;5055628;28;20474;-79
2023/07/26 10:14:56;;;;;;;0.50;0.40;;;20.30;99.90;;;;;;5054290;28;20632;-81
2023/07/26 10:17:25;;;;;;;0.50;0.40;;;21.00;99.90;;;;;;5057151;28;20444;-80
2023/07/26 10:19:53;;;;;;;0.50;0.40;;;21.90;99.90;;;;;;5063240;28;21000;-80
2023/07/26 10:22:21;;;;;;;0.50;0.40;;;22.60;99.90;;;;;;5063314;28;20533;-80
2023/07/26 10:24:47;;;;;;;0.50;0.37;;;23.50;99.90;;;;;;5067329;28;20439;-80
2023/07/26 10:27:15;;;;;;;0.50;0.30;;;24.00;99.90;;;;;;5060689;28;20533;-81
2023/07/26 10:29:43;;;;;;;0.87;0.87;;;25.10;99.90;;;;;;5061211;28;20480;-83
2023/07/26 10:32:11;;;;;;;0.50;0.30;;;25.20;99.90;;;;;;5059574;28;20500;-82
2023/07/26 10:34:38;;;;;;;0.50;0.30;;;25.50;99.90;;;;;;5057542;28;20448;-82
2023/07/26 10:37:15;;;;;;;0.50;0.30;;;25.90;99.90;;;;;;5057958;28;20449;-82
2023/07/26 10:39:44;;;;;;;0.50;0.33;;;26.50;99.90;;;;;;5057545;28;20448;-84
2023/07/26 10:42:22;;;;;;;0.50;0.30;;;26.90;99.90;;;;;;5057933;28;20922;-81
2023/07/26 10:44:51;;;;;;;0.50;0.40;;;27.40;99.90;;;;;;5058252;28;20470;-82
2023/07/26 10:47:17;;;;;;;0.50;0.30;;;27.70;99.90;;;;;;5058579;28;20440;-82
2023/07/26 10:49:46;;;;;;;0.50;0.30;;;27.70;99.90;;;;;;5055870;28;20514;-81
2023/07/26 10:52:14;;;;;;;0.50;0.30;;;27.90;99.90;;;;;;5063607;28;20878;-81
2023/07/26 10:54:42;;;;;;;0.50;0.30;;;28.20;99.90;;;;;;5063051;28;20451;-80
2023/07/26 10:57:20;;;;;;;0.67;0.67;;;28.80;95.90;;;;;;5055422;28;20449;-81
2023/07/26 10:59:55;;;;;;;0.50;0.30;;;29.30;96.40;;;;;;5050252;28;20445;-80
2023/07/26 11:02:36;;;;;;;0.50;0.30;;;29.00;95.50;;;;;;5054985;28;20472;-81
2023/07/26 11:05:05;;;;;;;0.50;0.40;;;29.20;92.70;;;;;;5062451;28;20444;-81
2023/07/26 11:07:55;;;;;;;0.50;0.30;;;29.10;92.00;;;;;;5055685;28;20443;-82
2023/07/26 11:10:23;;;;;;;0.50;0.30;;;29.00;92.30;;;;;;5065558;28;20485;-82
2023/07/26 11:12:51;;;;;;;0.50;0.30;;;29.40;89.10;;;;;;5060796;28;20470;-81
2023/07/26 11:15:30;;;;;;;0.50;0.30;;;29.10;88.20;;;;;;5052855;28;20459;-83
2023/07/26 11:17:57;;;;;;;0.50;0.40;;;28.70;91.50;;;;;;5055023;28;20437;-82
2023/07/26 11:20:24;;;;;;;0.50;0.30;;;28.90;84.20;;;;;;5060624;28;20455;-81
2023/07/26 11:22:51;;;;;;;1.77;1.07;;;29.20;90.90;;;;;;5054552;28;20463;-78
2023/07/26 11:25:19;;;;;;;0.50;0.30;;;29.20;91.50;;;;;;5056722;28;20459;-81
2023/07/26 11:27:47;;;;;;;0.50;0.40;;;29.20;90.30;;;;;;5066869;28;20456;-81
2023/07/26 11:30:15;;;;;;;0.50;0.30;;;29.10;90.10;;;;;;5051072;28;20480;-81
2023/07/26 11:32:48;;;;;;;0.50;0.30;;;29.10;82.00;;;;;;5059122;28;20441;-81
2023/07/26 11:35:17;;;;;;;0.50;0.30;;;29.20;79.10;;;;;;5058647;28;20448;-82
2023/07/26 11:37:52;;;;;;;0.60;0.53;;;28.80;85.10;;;;;;5064058;28;20451;-82
2023/07/26 11:40:19;;;;;;;0.50;0.40;;;27.70;90.40;;;;;;5057629;28;20465;-81
2023/07/26 11:42:45;;;;;;;0.70;0.70;;;26.90;90.30;;;;;;5055740;28;20491;-83
2023/07/26 11:45:13;;;;;;;0.50;0.40;;;25.90;85.50;;;;;;5045487;28;20556;-82
2023/07/26 11:47:41;;;;;;;0.50;0.40;;;25.00;97.90;;;;;;5060274;28;20786;-84
2023/07/26 11:50:09;;;;;;;0.50;0.40;;;24.90;99.90;;;;;;5060069;28;20511;-82
2023/07/26 11:52:38;;;;;;;0.97;0.97;;;24.80;99.90;;;;;;5057103;28;20478;-83
2023/07/26 11:55:06;;;;;;;0.50;0.30;;;24.50;99.90;;;;;;5050520;28;20472;-81
2023/07/26 11:57:33;;;;;;;0.50;0.30;;;24.30;99.90;;;;;;5052658;28;20452;-81
2023/07/26 12:00:02;;;;;;;0.70;0.70;;;24.50;99.90;;;;;;5062434;28;20455;-81
2023/07/26 12:02:29;;;;;;;0.50;0.30;;;25.00;99.90;;;;;;5059791;28;20465;-83
2023/07/26 12:05:25;;;;;;;0.50;0.30;;;26.30;99.90;;;;;;5062599;28;20448;-82
2023/07/26 12:07:54;;;;;;;0.50;0.30;;;26.80;93.80;;;;;;5035144;28;20453;-82
2023/07/26 12:10:29;;;;;;;0.50;0.40;;;26.40;93.40;;;;;;5056147;28;20476;-81
2023/07/26 12:12:56;;;;;;;0.50;0.30;;;25.80;96.10;;;;;;5056898;28;20937;-83
2023/07/26 12:15:24;;;;;;;1.57;1.00;;;25.00;96.40;;;;;;5057012;28;20866;-84
2023/07/26 12:17:55;;;;;;;0.50;0.40;;;24.20;99.90;;;;;;5060037;28;20453;-82
2023/07/26 12:20:24;;;;;;;0.70;0.70;;;23.40;99.90;;;;;;5060085;28;20449;-83
2023/07/26 12:22:55;;;;;;;0.50;0.40;;;22.80;99.90;;;;;;5056776;28;20448;-81
2023/07/26 12:25:22;;;;;;;0.50;0.40;;;21.90;99.90;;;;;;5056351;28;20952;-81
2023/07/26 12:27:53;;;;;;;0.50;0.37;;;21.20;99.90;;;;;;5066843;28;20511;-81
2023/07/26 12:30:20;;;;;;;0.70;0.70;;;20.40;99.90;;;;;;5066495;28;20477;-82
2023/07/26 12:32:46;;;;;;;0.50;0.40;;;19.90;99.90;;;;;;5059517;28;20439;-81
2023/07/26 12:35:21;;;;;;;0.50;0.40;;;19.50;99.90;;;;;;5046888;28;20484;-80
2023/07/26 12:37:50;;;;;;;0.50;0.40;;;19.20;99.90;;;;;;5059641;28;20945;-82
2023/07/26 12:40:20;;;;;;;0.50;0.40;;;18.90;99.90;;;;;;5058474;28;20437;-78
2023/07/26 12:42:47;;;;;;;0.50;0.40;;;18.70;99.90;;;;;;5047769;28;20912;-79
2023/07/26 12:45:14;;;;;;;0.50;0.40;;;18.50;99.90;;;;;;5054120;28;20520;-80
2023/07/26 12:47:41;;;;;;;0.50;0.40;;;18.30;99.90;;;;;;5046614;28;20453;-80
2023/07/26 12:50:09;;;;;;;0.50;0.30;;;18.10;99.90;;;;;;5055571;28;20502;-79
2023/07/26 12:52:37;;;;;;;0.50;0.30;;;18.00;99.90;;;;;;5053140;28;20456;-80